createdAt,value
2023-04-12T00:00:11.698Z,7.48
2023-04-12T00:02:39.517Z,7.06
2023-04-12T00:05:06.737Z,7.28
2023-04-12T00:07:33.854Z,7.26
2023-04-12T00:10:00.685Z,7.24
2023-04-12T00:12:27.413Z,7.20
2023-04-12T00:14:54.100Z,7.33
2023-04-12T00:17:20.871Z,7.43
2023-04-12T00:19:47.888Z,7.14
2023-04-12T00:22:15.003Z,7.16
2023-04-12T00:24:41.757Z,7.04
2023-04-12T00:27:08.462Z,7.22
2023-04-12T00:29:35.185Z,6.99
2023-04-12T00:32:03.720Z,7.04
2023-04-12T00:34:30.543Z,6.73
2023-04-12T00:36:57.230Z,6.77
2023-04-12T00:39:23.944Z,6.77
2023-04-12T00:41:50.984Z,6.82
2023-04-12T00:44:18.416Z,6.74
2023-04-12T00:46:46.503Z,6.85
2023-04-12T00:49:13.291Z,6.89
2023-04-12T00:51:39.988Z,6.76
2023-04-12T00:54:06.971Z,7.04
2023-04-12T00:56:33.886Z,6.75
2023-04-12T00:59:00.674Z,6.75
2023-04-12T01:01:28.379Z,6.93
2023-04-12T01:03:55.178Z,6.85
2023-04-12T01:06:42.582Z,6.87
2023-04-12T01:09:15.842Z,6.86
2023-04-12T01:11:45.040Z,6.89
2023-04-12T01:14:41.358Z,7.09
2023-04-12T01:17:08.269Z,6.84
2023-04-12T01:19:53.694Z,6.94
2023-04-12T01:22:32.936Z,7.03
2023-04-12T01:25:08.754Z,7.05
2023-04-12T01:27:39.764Z,7.02
2023-04-12T01:30:08.235Z,6.92
2023-04-12T01:32:35.235Z,6.85
2023-04-12T01:35:03.163Z,6.70
2023-04-12T01:37:29.996Z,6.90
2023-04-12T01:39:56.655Z,7.02
2023-04-12T01:42:23.329Z,6.80
2023-04-12T01:44:50.576Z,6.84
2023-04-12T01:47:17.258Z,6.53
2023-04-12T01:49:47.870Z,6.64
2023-04-12T01:52:14.624Z,6.69
2023-04-12T01:54:42.192Z,6.64
2023-04-12T01:57:08.849Z,6.80
2023-04-12T01:59:36.952Z,6.69
2023-04-12T02:02:03.789Z,6.93
2023-04-12T02:04:30.592Z,6.79
2023-04-12T02:06:57.293Z,6.88
2023-04-12T02:09:24.155Z,6.74
2023-04-12T02:11:51.029Z,6.80
2023-04-12T02:14:17.779Z,7.07
2023-04-12T02:16:44.954Z,6.68
2023-04-12T02:19:12.144Z,6.93
2023-04-12T02:21:42.517Z,6.93
2023-04-12T02:24:09.578Z,6.71
2023-04-12T02:26:37.325Z,6.82
2023-04-12T02:29:09.577Z,6.64
2023-04-12T02:31:36.951Z,6.66
2023-04-12T02:34:03.772Z,6.55
2023-04-12T02:36:30.529Z,6.62
2023-04-12T02:38:57.374Z,6.50
2023-04-12T02:41:24.340Z,6.25
2023-04-12T02:43:51.287Z,6.44
2023-04-12T02:46:21.875Z,6.41
2023-04-12T02:48:49.201Z,6.56
2023-04-12T02:51:15.995Z,6.55
2023-04-12T02:53:42.783Z,6.40
2023-04-12T02:56:09.809Z,6.65
2023-04-12T02:58:36.820Z,6.72
2023-04-12T03:01:07.799Z,6.50
2023-04-12T03:03:35.247Z,6.59
2023-04-12T03:06:02.046Z,6.45
2023-04-12T03:08:28.708Z,6.31
2023-04-12T03:10:55.566Z,6.50
2023-04-12T03:13:22.222Z,6.59
2023-04-12T03:15:51.593Z,6.40
2023-04-12T03:18:21.325Z,6.58
2023-04-12T03:20:48.502Z,6.50
2023-04-12T03:23:15.233Z,6.02
2023-04-12T03:25:42.111Z,6.27
2023-04-12T03:28:09.036Z,6.36
2023-04-12T03:30:35.836Z,6.40
2023-04-12T03:33:02.582Z,6.57
2023-04-12T03:35:29.283Z,6.02
2023-04-12T03:37:56.154Z,5.89
2023-04-12T03:40:22.877Z,6.18
2023-04-12T03:42:49.553Z,5.95
2023-04-12T03:45:16.334Z,5.82
2023-04-12T03:47:43.008Z,5.71
2023-04-12T03:50:12.303Z,5.68
2023-04-12T03:52:39.401Z,6.04
2023-04-12T03:55:07.824Z,5.30
2023-04-12T03:57:34.991Z,5.89
2023-04-12T04:00:01.764Z,6.60
2023-04-12T04:02:28.661Z,6.23
2023-04-12T04:04:55.689Z,6.02
2023-04-12T04:07:22.465Z,5.95
2023-04-12T04:09:50.189Z,6.17
2023-04-12T04:12:17.057Z,5.90
2023-04-12T04:14:44.270Z,5.61
2023-04-12T04:17:11.157Z,5.74
2023-04-12T04:19:37.868Z,5.74
2023-04-12T04:22:04.870Z,5.98
2023-04-12T04:24:31.578Z,5.91
2023-04-12T04:26:58.952Z,6.21
2023-04-12T04:29:26.125Z,5.99
2023-04-12T04:31:54.057Z,6.32
2023-04-12T04:34:22.403Z,6.59
2023-04-12T04:36:49.172Z,6.66
2023-04-12T04:39:15.951Z,6.49
2023-04-12T04:41:42.835Z,6.33
2023-04-12T04:44:09.654Z,6.55
2023-04-12T04:46:38.201Z,6.49
2023-04-12T04:49:05.526Z,6.73
2023-04-12T04:51:32.349Z,6.85
2023-04-12T04:53:59.230Z,6.76
2023-04-12T04:56:26.387Z,6.73
2023-04-12T04:58:54.114Z,6.97
2023-04-12T05:01:26.371Z,7.07
2023-04-12T05:03:53.201Z,7.21
2023-04-12T05:06:20.025Z,7.35
2023-04-12T05:08:46.679Z,7.47
2023-04-12T05:11:13.325Z,7.14
2023-04-12T05:13:39.993Z,7.42
2023-04-12T05:16:08.153Z,7.62
2023-04-12T05:18:34.874Z,8.65
2023-04-12T05:21:05.609Z,8.88
2023-04-12T05:23:41.979Z,9.94
2023-04-12T05:26:08.751Z,10.01
2023-04-12T05:28:35.462Z,10.94
2023-04-12T05:31:02.431Z,10.93
2023-04-12T05:33:30.579Z,11.06
2023-04-12T05:35:58.344Z,11.66
2023-04-12T05:38:25.079Z,12.44
2023-04-12T05:40:51.753Z,12.24
2023-04-12T05:43:18.472Z,11.95
2023-04-12T05:45:45.112Z,12.06
2023-04-12T05:48:11.849Z,12.45
2023-04-12T05:50:38.563Z,12.87
2023-04-12T05:53:05.223Z,12.56
2023-04-12T05:55:31.968Z,12.59
2023-04-12T05:58:38.901Z,12.54
2023-04-12T06:01:05.791Z,12.51
2023-04-12T06:03:33.508Z,12.49
2023-04-12T06:06:02.617Z,12.75
2023-04-12T06:08:29.604Z,12.65
2023-04-12T06:10:56.244Z,12.73
2023-04-12T06:13:22.967Z,13.10
2023-04-12T06:15:49.653Z,13.32
2023-04-12T06:18:17.411Z,12.70
2023-04-12T06:20:44.164Z,12.73
2023-04-12T06:23:10.913Z,12.84
2023-04-12T06:25:37.690Z,12.58
2023-04-12T06:28:05.542Z,12.29
2023-04-12T06:30:32.413Z,12.08
2023-04-12T06:32:59.125Z,11.77
2023-04-12T06:35:25.866Z,11.61
2023-04-12T06:37:53.594Z,11.75
2023-04-12T06:40:20.582Z,11.68
2023-04-12T06:42:47.279Z,11.72
2023-04-12T06:45:14.487Z,12.11
2023-04-12T06:47:47.488Z,12.05
2023-04-12T06:50:14.253Z,12.06
2023-04-12T06:52:41.027Z,11.96
2023-04-12T06:55:08.063Z,12.19
2023-04-12T06:57:34.739Z,12.58
2023-04-12T07:00:02.227Z,12.34
2023-04-12T07:02:28.924Z,12.07
2023-04-12T07:04:55.713Z,12.34
2023-04-12T07:07:23.110Z,12.04
2023-04-12T07:09:57.616Z,12.55
2023-04-12T07:12:24.447Z,12.48
2023-04-12T07:14:51.093Z,12.45
2023-04-12T07:17:17.814Z,12.29
2023-04-12T07:19:52.385Z,12.43
2023-04-12T07:22:19.020Z,12.64
2023-04-12T07:24:45.725Z,12.58
2023-04-12T07:27:12.538Z,12.19
2023-04-12T07:29:39.215Z,12.28
2023-04-12T07:32:06.129Z,13.03
2023-04-12T07:34:32.873Z,12.82
2023-04-12T07:37:01.181Z,12.53
2023-04-12T07:39:29.849Z,12.60
2023-04-12T07:41:56.741Z,12.64
2023-04-12T07:44:23.492Z,13.36
2023-04-12T07:46:50.145Z,13.59
2023-04-12T07:49:16.817Z,13.83
2023-04-12T07:51:43.877Z,14.37
2023-04-12T07:54:10.589Z,14.36
2023-04-12T07:56:37.317Z,14.30
2023-04-12T07:59:05.028Z,14.06
2023-04-12T08:01:31.964Z,14.14
2023-04-12T08:03:59.124Z,14.69
2023-04-12T08:06:30.569Z,14.84
2023-04-12T08:08:59.685Z,14.44
2023-04-12T08:11:26.385Z,14.27
2023-04-12T08:13:53.611Z,14.76
2023-04-12T08:16:21.214Z,14.63
2023-04-12T08:18:49.105Z,14.52
2023-04-12T08:21:15.778Z,14.76
2023-04-12T08:23:42.505Z,14.90
2023-04-12T08:26:09.446Z,15.24
2023-04-12T08:28:43.196Z,15.09
2023-04-12T08:31:09.907Z,14.41
2023-04-12T08:33:36.630Z,14.56
2023-04-12T08:36:03.556Z,14.50
2023-04-12T08:38:44.123Z,14.72
2023-04-12T08:41:13.013Z,15.64
2023-04-12T08:43:40.082Z,16.20
2023-04-12T08:46:08.163Z,16.24
2023-04-12T08:48:35.073Z,16.33
2023-04-12T08:51:01.802Z,16.82
2023-04-12T08:53:28.587Z,16.98
2023-04-12T08:55:55.362Z,16.61
2023-04-12T08:58:22.098Z,16.65
2023-04-12T09:00:48.743Z,16.47
2023-04-12T09:03:15.805Z,15.99
2023-04-12T09:05:42.744Z,16.23
2023-04-12T09:08:09.462Z,16.80
2023-04-12T09:10:37.308Z,16.76
2023-04-12T09:13:04.714Z,15.83
2023-04-12T09:15:31.492Z,16.47
2023-04-12T09:18:09.499Z,16.22
2023-04-12T09:20:36.734Z,16.77
2023-04-12T09:23:24.260Z,17.31
2023-04-12T09:25:54.040Z,17.00
2023-04-12T09:28:25.848Z,15.60
2023-04-12T09:30:53.515Z,16.80
2023-04-12T09:33:24.054Z,16.94
2023-04-12T09:35:51.433Z,16.56
2023-04-12T09:38:19.259Z,17.18
2023-04-12T09:40:46.079Z,17.18
2023-04-12T09:43:12.827Z,17.89
2023-04-12T09:45:39.621Z,17.99
2023-04-12T09:48:08.040Z,18.44
2023-04-12T09:50:34.868Z,19.22
2023-04-12T09:53:02.460Z,17.73
2023-04-12T09:55:29.825Z,17.18
2023-04-12T09:58:00.802Z,18.33
2023-04-12T10:00:27.879Z,18.42
2023-04-12T10:02:55.369Z,18.32
2023-04-12T10:05:23.665Z,18.54
2023-04-12T10:07:51.163Z,18.39
2023-04-12T10:10:18.436Z,18.71
2023-04-12T10:12:46.808Z,18.48
2023-04-12T10:15:15.595Z,17.31
2023-04-12T10:18:04.253Z,17.97
2023-04-12T10:20:31.008Z,17.82
2023-04-12T10:22:59.701Z,18.43
2023-04-12T10:25:27.438Z,18.03
2023-04-12T10:27:54.112Z,19.24
2023-04-12T10:30:24.713Z,19.17
2023-04-12T10:33:03.932Z,19.44
2023-04-12T10:35:49.515Z,19.50
2023-04-12T10:41:38.195Z,18.94
2023-04-12T10:44:23.966Z,18.54
2023-04-12T10:46:51.005Z,18.46
2023-04-12T10:49:18.190Z,18.71
2023-04-12T10:52:03.535Z,18.82
2023-04-12T10:54:30.384Z,19.39
2023-04-12T10:56:57.703Z,19.73
2023-04-12T10:59:31.299Z,18.81
2023-04-12T11:02:07.514Z,18.28
2023-04-12T11:04:34.740Z,18.84
2023-04-12T11:07:03.579Z,19.71
2023-04-12T11:09:33.398Z,20.09
2023-04-12T11:12:07.404Z,19.35
2023-04-12T11:14:54.055Z,18.83
2023-04-12T11:17:21.504Z,18.75
2023-04-12T11:19:51.442Z,19.03
2023-04-12T11:22:20.780Z,19.15
2023-04-12T11:24:51.560Z,19.18
2023-04-12T11:27:19.316Z,19.20
2023-04-12T11:29:47.700Z,19.57
2023-04-12T11:32:14.644Z,19.08
2023-04-12T11:34:42.238Z,18.58
2023-04-12T11:37:09.300Z,18.95
2023-04-12T11:39:36.860Z,18.75
2023-04-12T11:42:03.942Z,18.43
2023-04-12T11:44:40.660Z,18.52
2023-04-12T11:47:18.667Z,17.88
2023-04-12T11:49:46.229Z,17.88
2023-04-12T11:52:13.236Z,17.95
2023-04-12T11:54:43.591Z,18.20
2023-04-12T11:57:11.674Z,18.17
2023-04-12T11:59:38.341Z,18.14
2023-04-12T12:02:17.081Z,18.45
2023-04-12T12:04:49.459Z,18.61
2023-04-12T12:07:16.814Z,19.33
2023-04-12T12:09:44.095Z,19.78
2023-04-12T12:12:14.170Z,19.87
2023-04-12T12:14:41.002Z,19.43
2023-04-12T12:17:11.876Z,18.89
2023-04-12T12:19:39.578Z,18.27
2023-04-12T12:22:13.099Z,19.07
2023-04-12T12:24:58.053Z,19.31
2023-04-12T12:27:25.576Z,18.96
2023-04-12T12:29:53.548Z,18.72
2023-04-12T12:32:20.989Z,18.92
2023-04-12T12:34:54.475Z,19.02
2023-04-12T12:37:22.223Z,18.74
2023-04-12T12:40:01.411Z,18.81
2023-04-12T12:42:28.516Z,18.66
2023-04-12T12:44:55.218Z,19.06
2023-04-12T12:47:21.917Z,19.42
2023-04-12T12:49:48.624Z,19.86
2023-04-12T12:52:17.755Z,19.73
2023-04-12T12:54:45.061Z,19.21
2023-04-12T12:57:11.748Z,18.93
2023-04-12T12:59:38.442Z,18.78
2023-04-12T13:02:05.729Z,18.54
2023-04-12T13:04:32.806Z,18.53
2023-04-12T13:06:59.604Z,18.27
2023-04-12T13:09:26.343Z,18.34
2023-04-12T13:11:53.092Z,18.58
2023-04-12T13:14:19.899Z,18.18
2023-04-12T13:16:48.769Z,18.29
2023-04-12T13:19:16.327Z,17.74
2023-04-12T13:21:43.051Z,18.17
2023-04-12T13:24:09.706Z,18.84
2023-04-12T13:26:36.425Z,18.79
2023-04-12T13:29:03.435Z,18.86
2023-04-12T13:31:30.161Z,18.84
2023-04-12T13:33:56.909Z,18.96
2023-04-12T13:36:23.607Z,19.60
2023-04-12T13:38:50.274Z,19.40
2023-04-12T13:41:16.959Z,18.94
2023-04-12T13:43:43.727Z,19.14
2023-04-12T13:46:10.479Z,18.79
2023-04-12T13:48:37.525Z,18.69
2023-04-12T13:51:04.392Z,19.28
2023-04-12T13:53:33.706Z,18.91
2023-04-12T13:56:00.396Z,19.30
2023-04-12T13:58:27.349Z,18.92
2023-04-12T14:00:59.534Z,18.65
2023-04-12T14:03:26.793Z,18.57
2023-04-12T14:05:53.589Z,18.59
2023-04-12T14:08:20.384Z,18.93
2023-04-12T14:10:47.070Z,19.32
2023-04-12T14:13:13.774Z,18.86
2023-04-12T14:15:40.518Z,18.65
2023-04-12T14:18:07.172Z,18.00
2023-04-12T14:20:33.852Z,18.07
2023-04-12T14:23:00.637Z,18.20
2023-04-12T14:25:27.448Z,18.52
2023-04-12T14:27:54.161Z,18.48
2023-04-12T14:30:20.831Z,18.11
2023-04-12T14:32:47.728Z,17.72
2023-04-12T14:35:14.450Z,17.69
2023-04-12T14:37:41.389Z,17.86
2023-04-12T14:40:08.664Z,18.06
2023-04-12T14:42:35.748Z,18.28
2023-04-12T14:45:02.528Z,18.03
2023-04-12T14:47:29.261Z,17.67
2023-04-12T14:49:55.992Z,18.00
2023-04-12T14:52:22.620Z,18.06
2023-04-12T14:54:49.298Z,18.35
2023-04-12T14:57:16.401Z,18.37
2023-04-12T14:59:43.153Z,17.97
2023-04-12T15:02:10.010Z,18.11
2023-04-12T15:04:37.066Z,18.24
2023-04-12T15:07:03.800Z,18.39
2023-04-12T15:09:30.711Z,18.15
2023-04-12T15:12:01.540Z,18.30
2023-04-12T15:14:28.396Z,18.40
2023-04-12T15:16:55.746Z,18.13
2023-04-12T15:19:23.647Z,17.97
2023-04-12T15:21:51.226Z,17.91
2023-04-12T15:24:22.430Z,18.10
2023-04-12T15:26:50.214Z,17.62
2023-04-12T15:29:17.017Z,17.87
2023-04-12T15:31:43.736Z,17.70
2023-04-12T15:34:10.887Z,17.77
2023-04-12T15:36:37.788Z,17.57
2023-04-12T15:39:07.420Z,17.48
2023-04-12T15:41:37.250Z,17.00
2023-04-12T15:44:04.366Z,17.33
2023-04-12T15:46:31.107Z,17.38
2023-04-12T15:48:58.529Z,17.44
2023-04-12T15:51:25.201Z,17.22
2023-04-12T15:53:51.831Z,16.86
2023-04-12T15:56:24.122Z,16.81
2023-04-12T15:58:57.926Z,16.79
2023-04-12T16:01:25.001Z,16.43
2023-04-12T16:03:52.124Z,16.26
2023-04-12T16:06:23.365Z,16.29
2023-04-12T16:08:50.522Z,16.68
2023-04-12T16:11:18.156Z,16.28
2023-04-12T16:13:45.888Z,16.66
2023-04-12T16:16:13.692Z,16.97
2023-04-12T16:18:41.690Z,16.78
2023-04-12T16:21:09.125Z,16.74
2023-04-12T16:23:38.982Z,16.94
2023-04-12T16:26:06.632Z,16.70
2023-04-12T16:28:33.651Z,16.88
2023-04-12T16:31:01.916Z,16.84
2023-04-12T16:33:31.493Z,16.88
2023-04-12T16:35:58.726Z,16.68
2023-04-12T16:38:25.902Z,16.78
2023-04-12T16:40:52.845Z,16.78
2023-04-12T16:43:21.596Z,16.89
2023-04-12T16:45:50.459Z,16.86
2023-04-12T16:48:17.655Z,17.02
2023-04-12T16:50:49.633Z,17.05
2023-04-12T16:53:17.510Z,16.88
2023-04-12T16:55:45.907Z,16.61
2023-04-12T16:58:12.872Z,16.93
2023-04-12T17:00:39.667Z,17.18
2023-04-12T17:03:07.390Z,17.10
2023-04-12T17:05:34.335Z,17.21
2023-04-12T17:08:01.164Z,16.76
2023-04-12T17:10:28.392Z,16.87
2023-04-12T17:12:55.900Z,16.81
2023-04-12T17:15:25.531Z,16.52
2023-04-12T17:17:53.220Z,16.75
2023-04-12T17:20:21.030Z,16.69
2023-04-12T17:22:48.156Z,16.57
2023-04-12T17:25:14.843Z,16.18
2023-04-12T17:27:41.936Z,16.57
2023-04-12T17:30:09.384Z,16.02
2023-04-12T17:32:39.053Z,16.15
2023-04-12T17:35:07.059Z,15.58
2023-04-12T17:37:34.197Z,15.50
2023-04-12T17:40:01.083Z,16.20
2023-04-12T17:42:27.898Z,15.70
2023-04-12T17:44:54.599Z,15.72
2023-04-12T17:47:22.640Z,15.83
2023-04-12T17:49:49.756Z,16.05
2023-04-12T17:52:17.241Z,16.19
2023-04-12T17:54:43.912Z,16.34
2023-04-12T17:57:10.941Z,16.03
2023-04-12T17:59:40.307Z,15.70
2023-04-12T18:02:07.228Z,15.80
2023-04-12T18:04:34.081Z,15.44
2023-04-12T18:07:01.640Z,15.37
2023-04-12T18:09:28.622Z,15.55
2023-04-12T18:11:55.349Z,15.31
2023-04-12T18:14:22.595Z,15.02
2023-04-12T18:16:49.504Z,14.94
2023-04-12T18:19:16.865Z,15.05
2023-04-12T18:21:44.820Z,15.19
2023-04-12T18:24:12.941Z,15.01
2023-04-12T18:26:39.715Z,14.43
2023-04-12T18:29:06.708Z,14.19
2023-04-12T18:31:33.574Z,14.69
2023-04-12T18:34:00.414Z,14.91
2023-04-12T18:36:27.557Z,14.62
2023-04-12T18:38:54.397Z,15.06
2023-04-12T18:41:21.162Z,14.14
2023-04-12T18:43:48.093Z,14.10
2023-04-12T18:46:17.987Z,13.79
2023-04-12T18:48:48.374Z,14.36
2023-04-12T18:51:15.170Z,14.64
2023-04-12T18:53:43.654Z,14.59
2023-04-12T18:56:10.834Z,14.44
2023-04-12T18:58:51.115Z,14.79
2023-04-12T19:01:24.454Z,14.43
2023-04-12T19:03:51.506Z,14.21
2023-04-12T19:06:18.465Z,14.56
2023-04-12T19:08:45.260Z,14.03
2023-04-12T19:11:12.417Z,14.40
2023-04-12T19:13:39.121Z,13.92
2023-04-12T19:16:08.738Z,14.35
2023-04-12T19:18:35.590Z,13.94
2023-04-12T19:21:02.866Z,14.09
2023-04-12T19:23:30.220Z,14.12
2023-04-12T19:26:00.047Z,14.01
2023-04-12T19:28:27.531Z,13.95
2023-04-12T19:30:54.465Z,13.72
2023-04-12T19:33:21.205Z,13.73
2023-04-12T19:35:48.209Z,14.11
2023-04-12T19:38:15.877Z,13.68
2023-04-12T19:40:42.874Z,14.16
2023-04-12T19:43:09.591Z,14.27
2023-04-12T19:45:36.530Z,14.23
2023-04-12T19:48:03.551Z,14.34
2023-04-12T19:50:31.326Z,14.35
2023-04-12T19:52:58.033Z,14.21
2023-04-12T19:55:25.464Z,14.06
2023-04-12T19:57:52.240Z,14.31
2023-04-12T20:00:23.361Z,14.25
2023-04-12T20:02:51.276Z,14.24
2023-04-12T20:05:18.220Z,13.78
2023-04-12T20:07:45.440Z,14.09
2023-04-12T20:10:12.880Z,13.94
2023-04-12T20:12:39.684Z,13.73
2023-04-12T20:15:08.464Z,13.83
2023-04-12T20:17:41.712Z,13.74
2023-04-12T20:20:10.863Z,13.47
2023-04-12T20:22:38.041Z,13.76
2023-04-12T20:25:05.632Z,13.96
2023-04-12T20:27:33.033Z,14.24
2023-04-12T20:30:00.541Z,13.71
2023-04-12T20:32:27.332Z,13.93
2023-04-12T20:34:54.983Z,14.01
2023-04-12T20:37:21.832Z,13.97
2023-04-12T20:39:48.546Z,13.98
2023-04-12T20:42:20.406Z,13.81
2023-04-12T20:44:47.584Z,13.56
2023-04-12T20:47:14.444Z,13.86
2023-04-12T20:49:41.573Z,13.69
2023-04-12T20:52:09.639Z,13.66
2023-04-12T20:54:36.696Z,13.11
2023-04-12T20:57:06.161Z,13.40
2023-04-12T20:59:33.530Z,13.29
2023-04-12T21:02:00.692Z,13.39
2023-04-12T21:04:27.917Z,13.55
2023-04-12T21:06:57.910Z,13.14
2023-04-12T21:09:24.855Z,13.18
2023-04-12T21:11:52.539Z,13.10
2023-04-12T21:14:19.588Z,12.97
2023-04-12T21:16:48.751Z,12.83
2023-04-12T21:19:16.097Z,12.61
2023-04-12T21:21:42.917Z,12.70
2023-04-12T21:24:09.604Z,12.63
2023-04-12T21:26:36.248Z,12.70
2023-04-12T21:29:02.957Z,12.52
2023-04-12T21:31:29.654Z,12.52
2023-04-12T21:34:00.200Z,12.53
2023-04-12T21:36:30.470Z,12.48
2023-04-12T21:39:00.350Z,12.42
2023-04-12T21:41:27.564Z,12.28
2023-04-12T21:43:54.203Z,12.10
2023-04-12T21:46:21.484Z,12.29
2023-04-12T21:48:48.157Z,12.27
2023-04-12T21:51:14.812Z,12.51
2023-04-12T21:53:41.496Z,12.37
2023-04-12T21:56:08.739Z,12.25
2023-04-12T21:58:35.461Z,12.36
2023-04-12T22:01:02.714Z,12.45
2023-04-12T22:03:29.592Z,12.52
2023-04-12T22:06:04.205Z,12.53
2023-04-12T22:08:33.206Z,12.12
2023-04-12T22:11:00.492Z,12.41
2023-04-12T22:13:27.312Z,12.59
2023-04-12T22:15:54.023Z,12.42
2023-04-12T22:18:20.677Z,12.63
2023-04-12T22:20:48.197Z,12.48
2023-04-12T22:23:18.221Z,12.80
2023-04-12T22:25:45.653Z,12.56
2023-04-12T22:28:12.727Z,12.33
2023-04-12T22:30:39.758Z,12.46
2023-04-12T22:33:08.503Z,11.98
2023-04-12T22:35:36.548Z,12.65
2023-04-12T22:38:04.265Z,12.42
2023-04-12T22:40:30.998Z,12.83
2023-04-12T22:42:58.287Z,12.74
2023-04-12T22:45:25.114Z,12.63
2023-04-12T22:47:53.033Z,12.27
2023-04-12T22:50:20.098Z,12.83
2023-04-12T22:52:50.088Z,13.20
2023-04-12T22:55:18.300Z,13.35
2023-04-12T22:57:45.152Z,13.64
2023-04-12T23:00:17.061Z,13.74
2023-04-12T23:02:45.079Z,13.41
2023-04-12T23:05:12.843Z,13.17
2023-04-12T23:07:41.333Z,13.10
2023-04-12T23:10:08.964Z,13.94
2023-04-12T23:12:36.303Z,13.96
2023-04-12T23:15:04.461Z,13.55
2023-04-12T23:17:31.283Z,13.75
2023-04-12T23:19:57.970Z,13.60
2023-04-12T23:22:48.594Z,14.10
2023-04-12T23:25:39.661Z,13.94
2023-04-12T23:28:14.325Z,13.95
2023-04-12T23:30:51.147Z,13.15
2023-04-12T23:33:18.736Z,12.29
2023-04-12T23:35:45.848Z,12.91
2023-04-12T23:38:32.958Z,12.74
2023-04-12T23:41:00.568Z,12.87
2023-04-12T23:43:27.244Z,12.76
2023-04-12T23:45:54.142Z,11.73
2023-04-12T23:48:20.974Z,12.49
2023-04-12T23:50:48.362Z,11.78
2023-04-12T23:53:15.654Z,12.49
2023-04-12T23:55:42.712Z,12.99
2023-04-12T23:58:09.499Z,12.73
